Time;durP1;ratioP1;P1;durP2;ratioP2;P2;SDS_P1;SDS_P2;PMS_P1;PMS_P2;Temp;Humidity;BMP_temperature;BMP_pressure;BME280_temperature;BME280_humidity;BME280_pressure;Samples;Min_cycle;Max_cycle;Signal;HPM_P1;HPM_P2
2023/03/10 00:00:15;;;;;;;13.40;9.50;;;2.70;99.90;;;;;;4844501;29;20045;-89
2023/03/10 00:02:48;;;;;;;13.10;10.00;;;2.70;99.90;;;;;;4855154;29;20128;-90
2023/03/10 00:05:15;;;;;;;13.17;9.70;;;2.70;99.90;;;;;;4862307;29;20116;-89
2023/03/10 00:07:41;;;;;;;13.55;10.23;;;2.70;99.90;;;;;;4849753;29;20041;-90
2023/03/10 00:10:07;;;;;;;13.85;9.95;;;2.70;99.90;;;;;;4860988;29;20052;-89
2023/03/10 00:12:32;;;;;;;13.85;10.20;;;2.70;99.90;;;;;;4860601;29;20533;-90
2023/03/10 00:14:58;;;;;;;13.02;9.77;;;2.70;99.90;;;;;;4843651;29;20128;-90
2023/03/10 00:17:24;;;;;;;14.18;10.10;;;2.70;99.90;;;;;;4851932;29;20049;-90
2023/03/10 00:19:49;;;;;;;12.65;9.32;;;2.60;99.90;;;;;;4865573;29;20120;-90
2023/03/10 00:22:15;;;;;;;13.30;9.63;;;2.70;99.90;;;;;;4857044;29;20049;-90
2023/03/10 00:24:40;;;;;;;15.15;11.18;;;2.60;99.90;;;;;;4860579;29;20077;-90
2023/03/10 00:27:06;;;;;;;13.77;10.02;;;2.60;99.90;;;;;;4869429;29;20065;-90
2023/03/10 00:29:31;;;;;;;14.57;10.00;;;2.60;99.90;;;;;;4874391;29;20487;-91
2023/03/10 00:31:57;;;;;;;13.05;9.98;;;2.60;99.90;;;;;;4877054;29;20064;-90
2023/03/10 00:34:23;;;;;;;13.73;10.15;;;2.60;99.90;;;;;;4862907;29;20446;-91
2023/03/10 00:36:48;;;;;;;13.00;9.73;;;2.60;99.90;;;;;;4877026;29;20053;-90
2023/03/10 00:39:14;;;;;;;14.00;10.45;;;2.60;99.90;;;;;;4865405;29;20029;-90
2023/03/10 00:41:39;;;;;;;14.20;9.93;;;2.60;99.90;;;;;;4881339;29;20053;-91
2023/03/10 00:44:08;;;;;;;14.52;10.40;;;2.60;99.90;;;;;;4880710;29;20049;-91
2023/03/10 00:46:35;;;;;;;13.82;9.88;;;2.60;99.90;;;;;;4859425;29;20057;-89
2023/03/10 00:49:00;;;;;;;15.13;11.10;;;2.60;99.90;;;;;;4877228;29;20045;-91
2023/03/10 00:51:26;;;;;;;14.82;9.48;;;2.60;99.90;;;;;;4875810;29;20040;-91
2023/03/10 00:53:52;;;;;;;15.25;10.52;;;2.60;99.90;;;;;;4864689;29;20517;-89
2023/03/10 00:56:23;;;;;;;13.88;9.85;;;2.50;99.90;;;;;;4861795;29;20060;-90
2023/03/10 00:58:53;;;;;;;14.43;10.13;;;2.60;99.90;;;;;;4863730;29;20418;-90
2023/03/10 01:01:27;;;;;;;14.27;10.70;;;2.50;99.90;;;;;;4846746;29;20429;-90
2023/03/10 01:03:55;;;;;;;14.73;10.15;;;2.50;99.90;;;;;;4864837;29;20045;-89
2023/03/10 01:06:21;;;;;;;14.02;10.25;;;2.50;99.90;;;;;;4873816;29;20061;-90
2023/03/10 01:08:47;;;;;;;15.20;10.57;;;2.50;99.90;;;;;;4868807;29;20065;-90
2023/03/10 01:11:18;;;;;;;13.68;9.60;;;2.50;99.90;;;;;;4846101;29;20045;-89
2023/03/10 01:13:46;;;;;;;14.40;10.10;;;2.50;99.90;;;;;;4857733;29;20064;-90
2023/03/10 01:16:12;;;;;;;14.90;10.27;;;2.50;99.90;;;;;;4880571;29;20047;-89
2023/03/10 01:18:37;;;;;;;13.30;9.82;;;2.50;99.90;;;;;;4871294;29;20050;-90
2023/03/10 01:21:04;;;;;;;14.00;10.20;;;2.50;99.90;;;;;;4861909;29;20045;-90
2023/03/10 01:23:30;;;;;;;14.05;10.25;;;2.50;99.90;;;;;;4854554;29;20477;-88
2023/03/10 01:25:55;;;;;;;12.88;9.60;;;2.50;99.90;;;;;;4858237;29;20124;-90
2023/03/10 01:28:21;;;;;;;14.60;9.77;;;2.50;99.90;;;;;;4846805;29;20061;-89
2023/03/10 01:30:48;;;;;;;13.98;10.00;;;2.50;99.90;;;;;;4847665;29;20069;-89
2023/03/10 01:33:15;;;;;;;14.98;10.00;;;2.50;99.90;;;;;;4863248;29;20485;-89
2023/03/10 01:35:41;;;;;;;14.00;9.68;;;2.60;99.90;;;;;;4851489;29;20438;-90
2023/03/10 01:38:08;;;;;;;13.00;9.77;;;2.50;99.90;;;;;;4861480;29;20097;-90
2023/03/10 01:40:37;;;;;;;14.95;10.32;;;2.50;99.90;;;;;;4846750;29;20045;-90
2023/03/10 01:43:27;;;;;;;13.55;9.90;;;2.50;99.90;;;;;;4863594;29;20100;-90
2023/03/10 01:45:52;;;;;;;14.77;10.10;;;2.50;99.90;;;;;;4845216;29;20049;-90
2023/03/10 01:48:20;;;;;;;13.73;9.70;;;2.50;99.90;;;;;;4846225;29;20052;-90
2023/03/10 01:50:49;;;;;;;13.75;10.40;;;2.50;99.90;;;;;;4866601;29;20037;-90
2023/03/10 01:53:18;;;;;;;13.30;10.05;;;2.50;99.90;;;;;;4858986;29;20037;-90
2023/03/10 01:55:57;;;;;;;13.55;9.55;;;2.50;99.90;;;;;;4864128;29;20065;-89
2023/03/10 01:58:29;;;;;;;13.57;10.13;;;2.50;99.90;;;;;;4866975;29;20086;-88
2023/03/10 02:00:54;;;;;;;13.68;10.15;;;2.50;99.90;;;;;;4864095;29;20034;-89
2023/03/10 02:03:46;;;;;;;15.40;11.10;;;2.50;99.90;;;;;;4849701;29;20048;-89
2023/03/10 02:06:15;;;;;;;14.70;11.20;;;2.50;99.90;;;;;;4859208;29;20045;-88
2023/03/10 02:08:44;;;;;;;13.68;10.15;;;2.50;99.90;;;;;;4866848;29;20045;-88
2023/03/10 02:11:11;;;;;;;15.05;11.27;;;2.50;99.90;;;;;;4852015;29;20120;-88
2023/03/10 02:13:37;;;;;;;16.63;11.00;;;2.50;99.90;;;;;;4852796;29;20499;-88
2023/03/10 02:16:03;;;;;;;13.82;10.43;;;2.50;99.90;;;;;;4862247;29;20088;-88
2023/03/10 02:18:30;;;;;;;18.27;13.18;;;2.50;99.90;;;;;;4862993;29;20127;-88
2023/03/10 02:21:12;;;;;;;14.95;11.75;;;2.50;99.90;;;;;;4861560;29;20116;-88
2023/03/10 02:23:51;;;;;;;16.13;11.70;;;2.50;99.90;;;;;;4846621;29;20413;-87
2023/03/10 02:26:25;;;;;;;17.10;12.02;;;2.50;99.90;;;;;;4845118;29;20090;-89
2023/03/10 02:28:52;;;;;;;17.10;11.93;;;2.50;99.90;;;;;;4862344;29;20057;-89
2023/03/10 02:31:20;;;;;;;19.17;12.77;;;2.50;99.90;;;;;;4855941;29;20052;-90
2023/03/10 02:33:47;;;;;;;17.23;12.77;;;2.40;99.90;;;;;;4862688;29;20049;-89
2023/03/10 02:36:18;;;;;;;17.30;13.00;;;2.50;99.90;;;;;;4861759;29;20069;-89
2023/03/10 02:38:43;;;;;;;19.75;14.88;;;2.50;99.90;;;;;;4854440;29;20052;-90
2023/03/10 02:41:19;;;;;;;19.17;13.50;;;2.40;99.90;;;;;;4861951;29;20136;-89
2023/03/10 02:43:47;;;;;;;19.45;13.93;;;2.50;99.90;;;;;;4880831;29;20125;-89
2023/03/10 02:46:13;;;;;;;19.50;14.60;;;2.40;99.90;;;;;;4846770;29;20068;-89
2023/03/10 02:48:40;;;;;;;17.45;13.77;;;2.50;99.90;;;;;;4872745;29;20052;-89
2023/03/10 02:51:11;;;;;;;19.50;14.80;;;2.50;99.90;;;;;;4870271;29;20044;-89
2023/03/10 02:53:37;;;;;;;19.27;13.32;;;2.40;99.90;;;;;;4845593;29;20045;-90
2023/03/10 02:56:02;;;;;;;18.45;14.82;;;2.40;99.90;;;;;;4875006;29;20060;-91
2023/03/10 02:58:30;;;;;;;18.55;14.00;;;2.40;99.90;;;;;;4863305;29;20049;-89
2023/03/10 03:00:56;;;;;;;18.65;14.07;;;2.40;99.90;;;;;;4851501;29;20049;-90
2023/03/10 03:03:22;;;;;;;18.92;13.98;;;2.40;99.90;;;;;;4859030;29;20472;-89
2023/03/10 03:05:48;;;;;;;20.60;15.00;;;2.40;99.90;;;;;;4856060;29;20162;-90
2023/03/10 03:08:14;;;;;;;17.50;13.73;;;2.40;99.90;;;;;;4869519;29;20041;-89
2023/03/10 03:10:41;;;;;;;20.70;14.43;;;2.40;99.90;;;;;;4869342;29;20093;-90
2023/03/10 03:13:07;;;;;;;17.65;13.80;;;2.40;99.90;;;;;;4860594;29;20072;-89
2023/03/10 03:15:33;;;;;;;20.70;14.82;;;2.40;99.90;;;;;;4851328;29;20059;-89
2023/03/10 03:18:01;;;;;;;18.58;14.05;;;2.40;99.90;;;;;;4862402;29;20077;-89
2023/03/10 03:20:28;;;;;;;18.60;14.35;;;2.40;99.90;;;;;;4863813;29;20049;-90
2023/03/10 03:22:55;;;;;;;17.70;13.40;;;2.40;99.90;;;;;;4861442;29;20096;-90
2023/03/10 03:25:22;;;;;;;17.33;12.02;;;2.40;99.90;;;;;;4875086;29;20405;-90
2023/03/10 03:27:48;;;;;;;16.65;12.50;;;2.40;99.90;;;;;;4875337;29;20049;-90
2023/03/10 03:30:19;;;;;;;16.13;11.40;;;2.40;99.90;;;;;;4874400;29;20413;-90
2023/03/10 03:32:45;;;;;;;18.17;12.63;;;2.40;99.90;;;;;;4863830;29;20037;-90
2023/03/10 03:35:14;;;;;;;14.73;10.98;;;2.40;99.90;;;;;;4847552;29;20100;-91
2023/03/10 03:37:41;;;;;;;14.77;11.23;;;2.40;99.90;;;;;;4863223;29;20393;-91
2023/03/10 03:40:16;;;;;;;14.45;11.30;;;2.30;99.90;;;;;;4861270;29;20045;-91
2023/03/10 03:42:44;;;;;;;14.52;10.35;;;2.40;99.90;;;;;;4851590;29;20045;-90
2023/03/10 03:45:13;;;;;;;15.27;10.95;;;2.30;99.90;;;;;;4879270;29;20045;-90
2023/03/10 03:47:39;;;;;;;13.93;10.55;;;2.30;99.90;;;;;;4853585;29;20045;-89
2023/03/10 03:50:06;;;;;;;14.50;9.50;;;2.30;99.90;;;;;;4846866;29;20066;-91
2023/03/10 03:52:32;;;;;;;15.15;10.15;;;2.30;99.90;;;;;;4843656;29;20069;-89
2023/03/10 03:54:58;;;;;;;14.05;9.98;;;2.30;99.90;;;;;;4860701;29;20061;-88
2023/03/10 03:57:23;;;;;;;13.25;9.93;;;2.30;99.90;;;;;;4872829;29;20038;-90
2023/03/10 03:59:49;;;;;;;12.75;9.57;;;2.30;99.90;;;;;;4861692;29;20051;-89
2023/03/10 04:02:15;;;;;;;13.88;9.95;;;2.30;99.90;;;;;;4865943;29;20037;-89
2023/03/10 04:04:41;;;;;;;14.25;10.20;;;2.30;99.90;;;;;;4854653;29;20405;-89
2023/03/10 04:07:06;;;;;;;13.38;10.05;;;2.30;99.90;;;;;;4843944;29;20405;-89
2023/03/10 04:09:32;;;;;;;14.27;10.30;;;2.30;99.90;;;;;;4863910;29;20049;-89
2023/03/10 04:11:58;;;;;;;13.32;9.50;;;2.30;99.90;;;;;;4863009;29;20100;-89
2023/03/10 04:14:24;;;;;;;15.50;9.75;;;2.30;99.90;;;;;;4863124;29;20055;-90
2023/03/10 04:16:49;;;;;;;13.15;10.05;;;2.30;99.90;;;;;;4864872;29;20125;-90
2023/03/10 04:19:15;;;;;;;12.05;9.07;;;2.30;99.90;;;;;;4865549;29;20397;-89
2023/03/10 04:21:40;;;;;;;14.13;9.68;;;2.30;99.90;;;;;;4881437;29;20049;-89
2023/03/10 04:24:06;;;;;;;12.70;9.20;;;2.30;99.90;;;;;;4881250;29;20041;-89
2023/03/10 04:26:32;;;;;;;12.50;8.70;;;2.30;99.90;;;;;;4872052;29;20406;-89
2023/03/10 04:28:58;;;;;;;12.80;9.23;;;2.30;99.90;;;;;;4882167;29;20052;-90
2023/03/10 04:31:24;;;;;;;12.23;9.25;;;2.30;99.90;;;;;;4852847;29;20053;-89
2023/03/10 04:33:51;;;;;;;12.60;9.38;;;2.30;99.90;;;;;;4864623;29;20163;-90
2023/03/10 04:36:17;;;;;;;14.90;9.82;;;2.30;99.90;;;;;;4856900;29;20045;-90
2023/03/10 04:38:43;;;;;;;13.45;9.50;;;2.30;99.90;;;;;;4869308;29;20073;-91
2023/03/10 04:41:10;;;;;;;13.25;9.48;;;2.30;99.90;;;;;;4862848;29;20140;-93
2023/03/10 04:43:36;;;;;;;12.70;9.35;;;2.30;99.90;;;;;;4878029;29;20037;-93
2023/03/10 04:46:02;;;;;;;13.50;9.77;;;2.30;99.90;;;;;;4865543;29;20048;-94
2023/03/10 04:48:28;;;;;;;13.05;9.30;;;2.30;99.90;;;;;;4866287;29;20063;-94
2023/03/10 04:50:58;;;;;;;15.40;10.30;;;2.30;99.90;;;;;;4867988;29;20045;-93
2023/03/10 04:53:24;;;;;;;13.57;9.60;;;2.30;99.90;;;;;;4883387;29;20041;-93
2023/03/10 04:55:50;;;;;;;14.25;10.23;;;2.30;99.90;;;;;;4860925;29;20041;-95
2023/03/10 04:58:17;;;;;;;13.57;9.80;;;2.30;99.90;;;;;;4860302;29;20033;-95
2023/03/10 05:00:43;;;;;;;14.45;9.20;;;2.30;99.90;;;;;;4871927;29;20045;-96
2023/03/10 05:03:09;;;;;;;13.70;9.60;;;2.30;99.90;;;;;;4868623;29;20081;-95
2023/03/10 05:05:35;;;;;;;13.43;9.70;;;2.30;99.90;;;;;;4861974;29;20052;-96
2023/03/10 05:08:06;;;;;;;14.73;10.35;;;2.30;99.90;;;;;;4887291;29;20061;-95
2023/03/10 05:10:42;;;;;;;15.82;9.98;;;2.30;99.90;;;;;;4888720;29;20058;-96
2023/03/10 05:13:14;;;;;;;15.13;10.75;;;2.30;99.90;;;;;;4897747;29;20081;-96
2023/03/10 05:26:15;;;;;;;14.40;10.52;;;2.30;99.90;;;;;;4915701;29;20438;-96
2023/03/10 05:29:09;;;;;;;;;;;;;;;;;;;;;
2023/03/10 05:32:11;;;;;;;15.13;10.95;;;2.30;99.90;;;;;;5150676;23;20554;-96
2023/03/10 05:34:37;;;;;;;15.75;11.48;;;2.20;99.90;;;;;;4877100;29;20070;-95
2023/03/10 05:37:27;;;;;;;18.00;11.93;;;2.20;99.90;;;;;;4874070;29;20044;-96
2023/03/10 05:39:53;;;;;;;18.55;13.10;;;2.20;99.90;;;;;;4887008;29;20441;-96
2023/03/10 05:42:19;;;;;;;17.20;11.57;;;2.20;99.90;;;;;;4874571;29;20071;-94
2023/03/10 05:44:44;;;;;;;16.85;12.18;;;2.20;99.90;;;;;;4882109;29;20061;-95
2023/03/10 05:47:10;;;;;;;17.63;12.20;;;2.30;99.90;;;;;;4871999;29;20045;-96
2023/03/10 05:49:36;;;;;;;16.38;12.30;;;2.20;99.90;;;;;;4852957;29;20042;-94
2023/03/10 05:52:01;;;;;;;19.38;12.95;;;2.20;99.90;;;;;;4849146;29;20041;-94
2023/03/10 05:54:35;;;;;;;18.67;12.75;;;2.30;99.90;;;;;;4879704;29;20056;-93
2023/03/10 05:57:04;;;;;;;19.27;13.52;;;2.20;99.90;;;;;;4875709;29;20044;-95
2023/03/10 05:59:31;;;;;;;16.85;12.63;;;2.20;99.90;;;;;;4872163;29;20059;-95
2023/03/10 06:02:26;;;;;;;20.02;14.10;;;2.20;99.90;;;;;;4881774;29;20033;-96
2023/03/10 06:04:55;;;;;;;19.27;13.68;;;2.20;99.90;;;;;;4890346;29;20053;-92
2023/03/10 06:07:42;;;;;;;20.77;14.52;;;2.20;99.90;;;;;;4867432;29;20059;-95
2023/03/10 06:10:09;;;;;;;19.50;14.13;;;2.20;99.90;;;;;;4885293;29;20097;-94
2023/03/10 06:12:35;;;;;;;18.92;14.23;;;2.20;99.90;;;;;;4865887;29;20056;-94
2023/03/10 06:15:00;;;;;;;21.52;15.02;;;2.20;99.90;;;;;;4861205;29;20408;-92
2023/03/10 06:17:26;;;;;;;23.70;16.10;;;2.20;99.90;;;;;;4885570;29;20068;-96
2023/03/10 06:19:53;;;;;;;21.17;15.23;;;2.20;99.90;;;;;;4868588;29;20132;-96
2023/03/10 06:22:18;;;;;;;22.50;15.32;;;2.20;99.90;;;;;;4865915;29;20059;-95
2023/03/10 06:24:44;;;;;;;23.30;16.42;;;2.20;99.90;;;;;;4865997;29;20479;-96
2023/03/10 06:27:10;;;;;;;23.25;16.73;;;2.20;99.90;;;;;;4867842;29;20584;-96
2023/03/10 06:29:36;;;;;;;23.38;16.52;;;2.20;99.90;;;;;;4878623;29;20052;-95
2023/03/10 06:32:01;;;;;;;23.08;16.90;;;2.20;99.90;;;;;;4886324;29;20051;-96
2023/03/10 06:34:27;;;;;;;23.48;16.73;;;2.20;99.90;;;;;;4876361;29;20032;-96
2023/03/10 06:36:54;;;;;;;25.10;17.83;;;2.20;99.90;;;;;;4888803;29;20045;-94
2023/03/10 06:39:20;;;;;;;27.05;18.25;;;2.20;99.90;;;;;;4866398;29;20045;-94
2023/03/10 06:41:46;;;;;;;26.90;18.42;;;2.20;99.90;;;;;;4885788;29;20051;-95
2023/03/10 06:44:17;;;;;;;27.02;18.58;;;2.20;99.90;;;;;;4872855;29;20041;-96
2023/03/10 06:46:44;;;;;;;28.10;19.95;;;2.20;99.90;;;;;;4884727;29;20045;-95
2023/03/10 06:49:11;;;;;;;27.67;19.35;;;2.20;99.90;;;;;;4855412;29;20068;-96
2023/03/10 06:51:36;;;;;;;29.27;20.90;;;2.20;99.90;;;;;;4887314;29;20044;-95
2023/03/10 06:54:05;;;;;;;25.83;18.73;;;2.20;99.90;;;;;;4874788;29;20045;-94
2023/03/10 06:56:31;;;;;;;26.38;18.40;;;2.20;99.90;;;;;;4876095;29;20109;-96
2023/03/10 06:58:57;;;;;;;25.48;18.42;;;2.20;99.90;;;;;;4870446;29;20049;-95
2023/03/10 07:01:28;;;;;;;27.58;19.45;;;2.20;99.90;;;;;;4865730;29;20057;-94
2023/03/10 07:04:05;;;;;;;28.17;19.00;;;2.20;99.90;;;;;;4870627;29;20132;-96
2023/03/10 07:06:33;;;;;;;26.02;18.55;;;2.20;99.90;;;;;;4901934;29;20056;-96
2023/03/10 07:09:03;;;;;;;27.77;18.77;;;2.30;99.90;;;;;;4894017;29;20049;-94
2023/03/10 07:11:31;;;;;;;27.63;19.25;;;2.20;99.90;;;;;;4894096;29;20068;-92
2023/03/10 07:13:57;;;;;;;27.02;19.10;;;2.30;99.90;;;;;;4882620;29;20037;-94
2023/03/10 07:16:23;;;;;;;26.35;18.75;;;2.30;99.90;;;;;;4871046;29;20539;-95
2023/03/10 07:18:48;;;;;;;25.17;17.95;;;2.30;99.90;;;;;;4875918;29;20040;-90
2023/03/10 07:21:19;;;;;;;24.95;18.02;;;2.30;99.90;;;;;;4876375;29;20136;-90
2023/03/10 07:23:44;;;;;;;26.83;19.27;;;2.30;99.90;;;;;;4896925;29;20059;-91
2023/03/10 07:26:13;;;;;;;24.80;17.48;;;2.30;99.90;;;;;;4874061;29;20046;-89
2023/03/10 07:28:39;;;;;;;26.50;18.35;;;2.30;99.90;;;;;;4845208;29;20045;-94
2023/03/10 07:31:07;;;;;;;25.45;17.80;;;2.30;99.90;;;;;;4856966;29;20044;-94
2023/03/10 07:33:33;;;;;;;25.17;17.38;;;2.30;99.90;;;;;;4880241;29;20064;-91
2023/03/10 07:36:06;;;;;;;25.85;17.65;;;2.30;99.90;;;;;;4868595;29;20382;-92
2023/03/10 07:38:32;;;;;;;24.10;16.48;;;2.30;99.90;;;;;;4869792;29;20051;-92
2023/03/10 07:40:58;;;;;;;22.35;16.33;;;2.30;99.90;;;;;;4874116;29;20051;-94
2023/03/10 07:43:23;;;;;;;23.38;16.60;;;2.30;99.90;;;;;;4865732;29;20148;-94
2023/03/10 07:45:49;;;;;;;22.65;16.67;;;2.30;99.90;;;;;;4898129;29;20095;-94
2023/03/10 07:48:15;;;;;;;23.65;16.50;;;2.30;99.90;;;;;;4868738;29;20044;-95
2023/03/10 07:50:40;;;;;;;23.92;15.80;;;2.30;99.90;;;;;;4868928;29;20045;-93
2023/03/10 07:53:06;;;;;;;24.27;16.48;;;2.30;99.90;;;;;;4880504;29;20136;-94
2023/03/10 07:55:32;;;;;;;22.30;16.48;;;2.30;99.90;;;;;;4892687;29;20048;-96
2023/03/10 07:57:59;;;;;;;22.42;15.60;;;2.30;99.90;;;;;;4866725;29;20041;-94
2023/03/10 08:00:26;;;;;;;20.83;15.35;;;2.30;99.90;;;;;;4867588;29;20061;-92
2023/03/10 08:02:51;;;;;;;21.80;15.30;;;2.30;99.90;;;;;;4883206;29;20049;-94
2023/03/10 08:05:17;;;;;;;21.10;14.80;;;2.30;99.90;;;;;;4883934;29;20049;-95
2023/03/10 08:07:43;;;;;;;21.33;15.30;;;2.30;99.90;;;;;;4873712;29;20045;-94
2023/03/10 08:10:09;;;;;;;21.25;15.27;;;2.30;99.90;;;;;;4870078;29;20401;-94
2023/03/10 08:12:35;;;;;;;20.13;14.43;;;2.30;99.90;;;;;;4878475;29;20052;-92
2023/03/10 08:15:00;;;;;;;20.30;14.52;;;2.30;99.90;;;;;;4857252;29;20045;-94
2023/03/10 08:17:29;;;;;;;20.20;14.18;;;2.30;99.90;;;;;;4859651;29;20057;-91
2023/03/10 08:19:58;;;;;;;20.15;14.07;;;2.30;99.90;;;;;;4881998;29;20041;-90
2023/03/10 08:22:25;;;;;;;21.90;14.77;;;2.30;99.90;;;;;;4868569;29;20480;-90
2023/03/10 08:24:51;;;;;;;18.48;13.27;;;2.30;99.90;;;;;;4882664;29;20055;-91
2023/03/10 08:27:16;;;;;;;19.27;13.55;;;2.30;99.90;;;;;;4872134;29;20044;-90
2023/03/10 08:29:42;;;;;;;18.83;13.32;;;2.40;99.90;;;;;;4869875;29;20056;-90
2023/03/10 08:32:07;;;;;;;21.02;13.65;;;2.30;99.90;;;;;;4867953;29;20036;-90
2023/03/10 08:34:34;;;;;;;18.60;13.90;;;2.40;99.90;;;;;;4890002;29;20131;-91
2023/03/10 08:37:00;;;;;;;18.13;13.02;;;2.40;99.90;;;;;;4875349;29;20132;-92
2023/03/10 08:39:27;;;;;;;19.52;13.77;;;2.30;99.90;;;;;;4864508;29;20092;-91
2023/03/10 08:41:54;;;;;;;18.70;13.50;;;2.40;99.90;;;;;;4874833;29;20045;-92
2023/03/10 08:44:21;;;;;;;19.75;13.65;;;2.30;99.90;;;;;;4864839;29;20128;-90
2023/03/10 08:46:48;;;;;;;20.02;13.63;;;2.40;99.90;;;;;;4885687;29;20056;-89
2023/03/10 08:49:15;;;;;;;20.92;14.55;;;2.40;99.90;;;;;;4880831;29;20041;-90
2023/03/10 08:51:42;;;;;;;19.02;13.27;;;2.30;99.90;;;;;;4883766;29;20045;-90
2023/03/10 08:54:10;;;;;;;18.95;13.25;;;2.40;99.90;;;;;;4874230;29;20048;-90
2023/03/10 08:56:36;;;;;;;19.20;13.60;;;2.40;99.90;;;;;;4870457;29;20080;-90
2023/03/10 08:59:02;;;;;;;16.75;12.60;;;2.30;99.90;;;;;;4888116;29;20076;-91
2023/03/10 09:01:31;;;;;;;18.58;12.80;;;2.40;99.90;;;;;;4864994;29;20067;-89
2023/03/10 09:03:57;;;;;;;20.10;13.50;;;2.40;99.90;;;;;;4867603;29;20040;-89
2023/03/10 09:06:23;;;;;;;19.60;12.52;;;2.40;99.90;;;;;;4872297;29;20056;-89
2023/03/10 09:08:50;;;;;;;16.52;12.18;;;2.40;99.90;;;;;;4865439;29;20048;-89
2023/03/10 09:11:19;;;;;;;19.90;13.25;;;2.40;99.90;;;;;;4889383;29;20417;-88
2023/03/10 09:13:45;;;;;;;18.83;12.55;;;2.40;99.90;;;;;;4868349;29;20396;-88
2023/03/10 09:16:12;;;;;;;18.95;13.43;;;2.40;99.90;;;;;;4876279;29;20052;-88
2023/03/10 09:18:38;;;;;;;19.13;13.23;;;2.40;99.90;;;;;;4881516;29;20045;-89
2023/03/10 09:21:04;;;;;;;18.67;13.20;;;2.40;99.90;;;;;;4892716;29;20052;-87
2023/03/10 09:23:30;;;;;;;17.88;12.50;;;2.40;99.90;;;;;;4881893;29;20105;-89
2023/03/10 09:25:56;;;;;;;18.80;13.38;;;2.40;99.90;;;;;;4863072;29;20765;-90
2023/03/10 09:28:22;;;;;;;17.63;12.65;;;2.40;99.90;;;;;;4865670;29;20041;-89
2023/03/10 09:30:49;;;;;;;19.30;13.05;;;2.40;99.90;;;;;;4860761;29;20037;-88
2023/03/10 09:33:19;;;;;;;18.80;12.70;;;2.40;99.90;;;;;;4862749;29;20053;-89
2023/03/10 09:35:49;;;;;;;19.00;13.75;;;2.50;99.90;;;;;;4864409;29;20053;-89
2023/03/10 09:38:14;;;;;;;18.55;13.27;;;2.40;99.90;;;;;;4869605;29;20155;-88
2023/03/10 09:40:59;;;;;;;18.88;13.65;;;2.50;99.90;;;;;;4880545;29;20132;-89
2023/03/10 09:43:26;;;;;;;19.08;13.73;;;2.50;99.90;;;;;;4886397;29;20128;-88
2023/03/10 09:46:03;;;;;;;19.88;13.93;;;2.50;99.90;;;;;;4880789;29;20170;-88
2023/03/10 09:48:46;;;;;;;18.67;13.63;;;2.50;99.90;;;;;;4861294;29;20410;-88
2023/03/10 09:51:20;;;;;;;20.35;14.23;;;2.50;99.90;;;;;;4862774;29;20180;-89
2023/03/10 09:54:08;;;;;;;20.40;13.98;;;2.50;99.90;;;;;;4867182;29;20049;-88
2023/03/10 09:56:35;;;;;;;22.30;15.32;;;2.50;99.90;;;;;;4864822;29;20111;-89
2023/03/10 09:59:14;;;;;;;21.55;14.52;;;2.50;99.90;;;;;;4866373;29;20504;-89
2023/03/10 10:01:43;;;;;;;22.00;15.20;;;2.60;99.90;;;;;;4870158;29;20061;-89
2023/03/10 10:04:30;;;;;;;20.77;14.95;;;2.60;99.90;;;;;;4874895;29;20037;-88
2023/03/10 10:06:56;;;;;;;20.88;15.52;;;2.60;99.90;;;;;;4864756;29;20047;-89
2023/03/10 10:09:47;;;;;;;24.27;16.42;;;2.50;99.90;;;;;;4881557;29;20048;-89
2023/03/10 10:12:22;;;;;;;20.00;15.07;;;2.50;99.90;;;;;;4881991;29;20048;-90
2023/03/10 10:14:50;;;;;;;23.50;16.13;;;2.50;99.90;;;;;;4888556;29;20105;-89
2023/03/10 10:17:50;;;;;;;22.60;16.13;;;2.50;99.90;;;;;;4878311;29;20561;-90
2023/03/10 10:20:35;;;;;;;22.60;15.95;;;2.50;99.90;;;;;;4857425;29;20497;-91
2023/03/10 10:23:01;;;;;;;21.63;15.75;;;2.50;99.90;;;;;;4863476;29;20056;-90
2023/03/10 10:25:30;;;;;;;22.08;15.48;;;2.50;99.90;;;;;;4862220;29;20052;-89
2023/03/10 10:27:59;;;;;;;23.50;17.02;;;2.50;99.90;;;;;;4864519;29;20036;-89
2023/03/10 10:30:37;;;;;;;24.67;17.35;;;2.50;99.90;;;;;;4867468;29;20040;-88
2023/03/10 10:33:08;;;;;;;23.30;16.90;;;2.50;99.90;;;;;;4860887;29;20062;-89
2023/03/10 10:35:36;;;;;;;22.98;16.38;;;2.50;99.90;;;;;;4861380;29;20060;-88
2023/03/10 10:38:09;;;;;;;23.75;16.67;;;2.50;99.90;;;;;;4856955;29;20374;-86
2023/03/10 10:40:49;;;;;;;21.50;16.52;;;2.50;99.90;;;;;;4858982;29;20060;-89
2023/03/10 10:43:19;;;;;;;23.92;16.65;;;2.50;99.90;;;;;;4865518;29;20037;-91
2023/03/10 10:46:02;;;;;;;23.10;16.40;;;2.50;99.90;;;;;;4875896;29;20053;-94
2023/03/10 10:49:17;;;;;;;23.05;15.45;;;2.50;99.90;;;;;;4872111;29;20049;-92
2023/03/10 10:51:54;;;;;;;23.05;15.88;;;2.50;99.90;;;;;;4871755;29;20057;-92
2023/03/10 10:54:26;;;;;;;22.27;15.63;;;2.50;99.90;;;;;;4860460;29;20056;-93
2023/03/10 10:56:54;;;;;;;22.38;16.50;;;2.50;99.90;;;;;;4847937;29;20129;-93
2023/03/10 10:59:31;;;;;;;23.00;16.33;;;2.50;99.90;;;;;;4861298;29;20049;-94
2023/03/10 11:01:59;;;;;;;21.83;15.85;;;2.50;99.90;;;;;;4873828;29;20080;-93
2023/03/10 11:04:28;;;;;;;22.77;16.08;;;2.50;99.90;;;;;;4861506;29;20060;-94
2023/03/10 11:07:18;;;;;;;22.70;16.15;;;2.50;99.90;;;;;;4872147;29;20056;-94
2023/03/10 11:09:45;;;;;;;21.92;15.25;;;2.50;99.90;;;;;;4874692;29;20573;-93
2023/03/10 11:12:38;;;;;;;23.58;16.25;;;2.50;99.90;;;;;;4862997;29;20128;-93
2023/03/10 11:15:31;;;;;;;23.45;16.15;;;2.50;99.90;;;;;;4870965;29;20476;-90
2023/03/10 11:18:10;;;;;;;22.60;16.42;;;2.50;99.90;;;;;;4860774;29;20045;-89
2023/03/10 11:20:45;;;;;;;22.30;15.95;;;2.50;99.90;;;;;;4860781;29;20118;-91
2023/03/10 11:23:33;;;;;;;23.00;15.73;;;2.50;99.90;;;;;;4860927;29;20074;-90
2023/03/10 11:26:28;;;;;;;21.48;15.52;;;2.50;99.90;;;;;;4877234;29;20122;-91
2023/03/10 11:29:12;;;;;;;21.30;15.18;;;2.50;99.90;;;;;;4867881;29;20406;-93
2023/03/10 11:31:58;;;;;;;22.45;15.85;;;2.50;99.90;;;;;;4845193;29;20057;-88
2023/03/10 11:34:34;;;;;;;20.00;14.43;;;2.50;99.90;;;;;;4858506;29;20085;-91
2023/03/10 11:37:23;;;;;;;21.83;14.95;;;2.50;99.90;;;;;;4870725;29;20049;-90
2023/03/10 11:40:18;;;;;;;21.95;15.48;;;2.50;99.90;;;;;;4867001;29;20037;-89
2023/03/10 11:43:07;;;;;;;21.80;15.05;;;2.50;99.90;;;;;;4861892;29;20045;-91
2023/03/10 11:45:53;;;;;;;22.67;14.93;;;2.50;99.90;;;;;;4858402;29;20098;-91
2023/03/10 11:48:49;;;;;;;21.42;14.85;;;2.50;99.90;;;;;;4859528;29;20041;-91
2023/03/10 11:51:26;;;;;;;21.50;14.18;;;2.50;99.90;;;;;;4853378;29;20056;-91
2023/03/10 11:54:03;;;;;;;19.63;13.98;;;2.50;99.90;;;;;;4863976;29;20378;-90
2023/03/10 11:56:30;;;;;;;21.02;14.48;;;2.50;99.90;;;;;;4857418;29;20510;-90
2023/03/10 11:59:07;;;;;;;19.75;14.77;;;2.50;99.90;;;;;;4862967;29;20174;-88
2023/03/10 12:01:41;;;;;;;20.50;14.77;;;2.50;99.90;;;;;;4874592;29;20494;-89
2023/03/10 12:04:28;;;;;;;20.40;14.77;;;2.50;99.90;;;;;;4860904;29;20046;-89
2023/03/10 12:07:02;;;;;;;20.40;14.00;;;2.50;99.90;;;;;;4861280;29;20059;-87
2023/03/10 12:09:50;;;;;;;21.52;14.57;;;2.50;99.90;;;;;;4855296;29;20201;-88
2023/03/10 12:12:27;;;;;;;19.67;13.90;;;2.50;99.90;;;;;;4863702;29;20037;-88
2023/03/10 12:14:55;;;;;;;19.58;13.60;;;2.50;99.90;;;;;;4863864;29;20037;-88
2023/03/10 12:17:21;;;;;;;20.08;14.45;;;2.50;99.90;;;;;;4865732;29;20527;-89
2023/03/10 12:20:10;;;;;;;19.42;13.68;;;2.50;99.90;;;;;;4861133;29;20113;-89
2023/03/10 12:22:49;;;;;;;21.10;13.82;;;2.50;99.90;;;;;;4865846;29;20049;-89
2023/03/10 12:25:27;;;;;;;20.98;14.43;;;2.50;99.90;;;;;;4868999;29;20045;-88
2023/03/10 12:28:15;;;;;;;20.58;14.13;;;2.50;99.90;;;;;;4859647;29;20041;-88
2023/03/10 12:30:51;;;;;;;19.98;14.48;;;2.50;99.90;;;;;;4859196;29;20132;-89
2023/03/10 12:33:29;;;;;;;20.52;14.25;;;2.50;99.90;;;;;;4871815;29;20140;-89
2023/03/10 12:36:30;;;;;;;20.45;14.25;;;2.50;99.90;;;;;;4880403;29;20523;-89
2023/03/10 12:39:13;;;;;;;20.63;14.52;;;2.50;99.90;;;;;;4867919;29;20122;-89
2023/03/10 12:41:49;;;;;;;19.40;14.25;;;2.60;99.90;;;;;;4863240;29;20145;-89
2023/03/10 12:44:39;;;;;;;18.70;13.30;;;2.60;99.90;;;;;;4867575;29;20131;-89
2023/03/10 12:47:40;;;;;;;17.83;13.07;;;2.60;99.90;;;;;;4862479;29;20049;-88
2023/03/10 12:50:52;;;;;;;18.70;13.48;;;2.60;99.90;;;;;;4834092;29;20076;-90
2023/03/10 12:53:43;;;;;;;18.98;12.93;;;2.60;99.90;;;;;;4848742;29;20056;-90
2023/03/10 12:56:11;;;;;;;18.42;13.48;;;2.60;99.90;;;;;;4863338;29;20073;-91
2023/03/10 12:59:01;;;;;;;18.50;12.57;;;2.60;99.90;;;;;;4863699;29;20102;-91
2023/03/10 13:01:34;;;;;;;18.48;12.90;;;2.60;99.90;;;;;;4874142;29;20041;-90
2023/03/10 13:04:05;;;;;;;18.02;13.10;;;2.60;99.90;;;;;;4874452;29;20041;-89
2023/03/10 13:06:40;;;;;;;20.42;13.70;;;2.60;99.90;;;;;;4853771;29;20052;-91
2023/03/10 13:09:13;;;;;;;17.58;12.90;;;2.60;99.90;;;;;;4863501;29;20410;-91